createdAt,value
2018-07-03T00:01:38.363Z,17.29
2018-07-03T00:04:06.451Z,17.23
2018-07-03T00:06:34.489Z,17.20
2018-07-03T00:09:02.537Z,17.13
2018-07-03T00:11:30.579Z,17.09
2018-07-03T00:13:58.612Z,17.04
2018-07-03T00:16:32.108Z,17.00
2018-07-03T00:19:00.142Z,16.93
2018-07-03T00:21:28.176Z,16.87
2018-07-03T00:23:56.286Z,16.82
2018-07-03T00:26:24.331Z,16.79
2018-07-03T00:28:52.358Z,16.75
2018-07-03T00:31:20.405Z,16.72
2018-07-03T00:33:48.432Z,16.67
2018-07-03T00:36:16.484Z,16.61
2018-07-03T00:38:44.525Z,16.58
2018-07-03T00:41:12.581Z,16.56
2018-07-03T00:43:40.608Z,16.51
2018-07-03T00:46:08.653Z,16.47
2018-07-03T00:48:36.697Z,16.43
2018-07-03T00:51:04.750Z,16.39
2018-07-03T00:53:32.804Z,16.36
2018-07-03T00:56:00.860Z,16.33
2018-07-03T00:58:28.888Z,16.30
2018-07-03T01:00:56.930Z,16.25
2018-07-03T01:03:24.969Z,16.21
2018-07-03T01:05:53.019Z,16.20
2018-07-03T01:08:21.168Z,16.18
2018-07-03T01:10:49.300Z,16.15
2018-07-03T01:13:17.336Z,16.13
2018-07-03T01:15:45.375Z,16.10
2018-07-03T01:18:13.505Z,16.05
2018-07-03T01:20:41.546Z,16.00
2018-07-03T01:23:09.573Z,15.96
2018-07-03T01:25:37.599Z,15.93
2018-07-03T01:28:05.668Z,15.90
2018-07-03T01:30:33.708Z,15.86
2018-07-03T01:33:01.742Z,15.83
2018-07-03T01:35:29.912Z,15.80
2018-07-03T01:37:57.944Z,15.78
2018-07-03T01:40:25.964Z,15.76
2018-07-03T01:42:54.007Z,15.71
2018-07-03T01:45:22.034Z,15.66
2018-07-03T01:47:50.264Z,15.62
2018-07-03T01:50:18.291Z,15.59
2018-07-03T01:52:46.323Z,15.57
2018-07-03T01:55:14.375Z,15.55
2018-07-03T01:57:42.427Z,15.52
2018-07-03T02:00:10.453Z,15.50
2018-07-03T02:02:38.483Z,15.45
2018-07-03T02:05:06.506Z,15.43
2018-07-03T02:07:34.544Z,15.40
2018-07-03T02:10:02.576Z,15.38
2018-07-03T02:12:30.616Z,15.35
2018-07-03T02:14:58.648Z,15.29
2018-07-03T02:17:26.716Z,15.27
2018-07-03T02:19:54.749Z,15.21
2018-07-03T02:22:22.784Z,15.18
2018-07-03T02:24:50.830Z,15.15
2018-07-03T02:27:18.869Z,15.11
2018-07-03T02:29:46.899Z,15.09
2018-07-03T02:32:14.952Z,15.05
2018-07-03T02:34:43.020Z,15.02
2018-07-03T02:37:11.057Z,15.00
2018-07-03T02:39:39.092Z,14.97
2018-07-03T02:42:07.789Z,14.95
2018-07-03T02:44:35.822Z,14.92
2018-07-03T02:47:03.859Z,14.90
2018-07-03T02:49:31.903Z,14.89
2018-07-03T02:51:59.965Z,14.87
2018-07-03T02:54:28.021Z,14.86
2018-07-03T02:56:56.056Z,14.84
2018-07-03T02:59:24.088Z,14.82
2018-07-03T03:01:52.122Z,14.80
2018-07-03T03:04:20.157Z,14.78
2018-07-03T03:06:48.206Z,14.76
2018-07-03T03:09:16.232Z,14.74
2018-07-03T03:11:44.285Z,14.70
2018-07-03T03:14:12.380Z,14.69
2018-07-03T03:16:40.456Z,14.68
2018-07-03T03:19:08.508Z,14.69
2018-07-03T03:21:36.552Z,14.66
2018-07-03T03:24:04.588Z,14.64
2018-07-03T03:26:32.629Z,14.62
2018-07-03T03:29:00.683Z,14.61
2018-07-03T03:31:28.751Z,14.62
2018-07-03T03:33:56.796Z,14.62
2018-07-03T03:36:24.831Z,14.63
2018-07-03T03:38:52.875Z,14.61
2018-07-03T03:41:20.913Z,14.63
2018-07-03T03:43:48.943Z,14.63
2018-07-03T03:46:16.980Z,14.63
2018-07-03T03:48:45.073Z,14.63
2018-07-03T03:51:13.138Z,14.65
2018-07-03T03:53:41.221Z,14.69
2018-07-03T03:56:09.252Z,14.70
2018-07-03T03:58:37.446Z,14.71
2018-07-03T04:01:05.472Z,14.73
2018-07-03T04:03:33.520Z,14.75
2018-07-03T04:06:01.583Z,14.78
2018-07-03T04:08:29.625Z,14.82
2018-07-03T04:10:57.690Z,14.86
2018-07-03T04:13:25.737Z,14.90
2018-07-03T04:15:53.776Z,14.95
2018-07-03T04:18:29.378Z,15.01
2018-07-03T04:20:57.404Z,15.06
2018-07-03T04:23:25.443Z,15.12
2018-07-03T04:25:53.479Z,15.20
2018-07-03T04:28:21.531Z,15.27
2018-07-03T04:30:49.616Z,15.37
2018-07-03T04:33:17.659Z,15.47
2018-07-03T04:35:45.696Z,15.58
2018-07-03T04:38:13.738Z,15.69
2018-07-03T04:40:41.779Z,15.79
2018-07-03T04:43:09.820Z,15.90
2018-07-03T04:45:37.860Z,15.99
2018-07-03T04:48:05.911Z,16.09
2018-07-03T04:50:34.008Z,16.19
2018-07-03T04:53:02.067Z,16.28
2018-07-03T04:55:30.140Z,16.38
2018-07-03T04:57:58.289Z,16.47
2018-07-03T05:00:26.357Z,16.58
2018-07-03T05:02:54.420Z,16.70
2018-07-03T05:05:22.477Z,16.81
2018-07-03T05:07:50.516Z,16.90
2018-07-03T05:10:18.557Z,17.00
2018-07-03T05:12:46.588Z,17.10
2018-07-03T05:15:14.660Z,17.18
2018-07-03T05:17:42.707Z,17.32
2018-07-03T05:20:10.826Z,17.39
2018-07-03T05:22:38.885Z,17.45
2018-07-03T05:25:06.936Z,17.53
2018-07-03T05:27:35.003Z,17.61
2018-07-03T05:30:03.056Z,17.70
2018-07-03T05:32:31.124Z,17.82
2018-07-03T05:34:59.168Z,17.86
2018-07-03T05:37:27.204Z,17.89
2018-07-03T05:39:55.256Z,17.96
2018-07-03T05:42:23.280Z,18.06
2018-07-03T05:44:51.329Z,18.15
2018-07-03T05:47:19.392Z,18.24
2018-07-03T05:49:47.436Z,18.32
2018-07-03T05:52:15.540Z,18.43
2018-07-03T05:54:43.586Z,18.51
2018-07-03T05:57:11.653Z,18.58
2018-07-03T05:59:39.699Z,18.64
2018-07-03T06:02:07.748Z,18.72
2018-07-03T06:04:35.788Z,18.85
2018-07-03T06:07:03.832Z,19.03
2018-07-03T06:09:31.917Z,19.13
2018-07-03T06:11:59.964Z,19.18
2018-07-03T06:14:28.028Z,19.31
2018-07-03T06:16:57.031Z,19.44
2018-07-03T06:19:26.143Z,19.53
2018-07-03T06:21:55.021Z,19.57
2018-07-03T06:24:23.068Z,19.61
2018-07-03T06:26:51.168Z,19.74
2018-07-03T06:29:19.208Z,19.80
2018-07-03T06:31:47.704Z,19.94
2018-07-03T06:34:15.792Z,20.05
2018-07-03T06:36:43.832Z,20.19
2018-07-03T06:39:13.362Z,20.32
2018-07-03T06:41:41.459Z,20.46
2018-07-03T06:44:10.076Z,20.62
2018-07-03T06:46:38.136Z,20.78
2018-07-03T06:49:06.186Z,20.94
2018-07-03T06:51:34.392Z,21.05
2018-07-03T06:54:02.433Z,21.19
2018-07-03T06:56:30.492Z,21.36
2018-07-03T06:58:59.249Z,21.49
2018-07-03T07:01:27.331Z,21.59
2018-07-03T07:03:55.379Z,21.67
2018-07-03T07:06:23.436Z,21.84
2018-07-03T07:08:51.649Z,21.99
2018-07-03T07:11:19.540Z,22.12
2018-07-03T07:13:47.589Z,22.26
2018-07-03T07:16:15.645Z,22.42
2018-07-03T07:18:43.699Z,22.62
2018-07-03T07:21:11.752Z,22.72
2018-07-03T07:23:39.814Z,22.85
2018-07-03T07:26:07.860Z,23.00
2018-07-03T07:28:35.903Z,23.18
2018-07-03T07:31:03.961Z,23.31
2018-07-03T07:33:32.012Z,23.46
2018-07-03T07:36:00.092Z,23.66
2018-07-03T07:38:28.132Z,23.83
2018-07-03T07:40:56.180Z,23.99
2018-07-03T07:43:24.219Z,24.21
2018-07-03T07:45:52.268Z,24.46
2018-07-03T07:48:20.300Z,24.70
2018-07-03T07:50:48.356Z,24.93
2018-07-03T07:53:16.421Z,25.12
2018-07-03T07:55:44.481Z,25.33
2018-07-03T07:58:12.529Z,25.57
2018-07-03T08:00:40.573Z,25.79
2018-07-03T08:03:08.656Z,25.97
2018-07-03T08:05:36.708Z,26.15
2018-07-03T08:08:04.801Z,26.27
2018-07-03T08:10:32.899Z,26.27
2018-07-03T08:13:00.969Z,26.40
2018-07-03T08:15:29.025Z,26.65
2018-07-03T08:17:57.080Z,26.88
2018-07-03T08:20:25.164Z,26.98
2018-07-03T08:22:53.220Z,27.30
2018-07-03T08:25:21.307Z,27.55
2018-07-03T08:27:49.344Z,27.80
2018-07-03T08:30:17.443Z,28.06
2018-07-03T08:32:45.500Z,28.29
2018-07-03T08:35:14.056Z,28.46
2018-07-03T08:37:42.153Z,28.69
2018-07-03T08:40:10.192Z,28.80
2018-07-03T08:42:38.338Z,28.96
2018-07-03T08:45:07.136Z,29.18
2018-07-03T08:47:35.185Z,29.31
2018-07-03T08:50:03.228Z,29.39
2018-07-03T08:52:31.289Z,29.58
2018-07-03T08:54:59.380Z,29.76
2018-07-03T08:57:27.413Z,29.98
2018-07-03T08:59:55.460Z,29.96
2018-07-03T09:02:23.518Z,29.92
2018-07-03T09:04:51.564Z,30.08
2018-07-03T09:07:19.616Z,30.25
2018-07-03T09:09:47.653Z,30.47
2018-07-03T09:12:15.763Z,30.72
2018-07-03T09:14:43.808Z,30.93
2018-07-03T09:17:17.375Z,31.07
2018-07-03T09:19:45.416Z,31.34
2018-07-03T09:22:13.476Z,31.57
2018-07-03T09:24:41.720Z,31.49
2018-07-03T09:27:10.009Z,31.19
2018-07-03T09:29:38.163Z,30.82
2018-07-03T09:32:06.655Z,30.44
2018-07-03T09:34:34.723Z,30.10
2018-07-03T09:37:02.772Z,29.95
2018-07-03T09:39:30.874Z,29.87
2018-07-03T09:41:58.945Z,29.88
2018-07-03T09:44:27.087Z,29.80
2018-07-03T09:46:55.177Z,29.74
2018-07-03T09:49:23.245Z,29.56
2018-07-03T09:51:51.311Z,29.55
2018-07-03T09:54:19.372Z,29.44
2018-07-03T09:56:47.432Z,29.27
2018-07-03T09:59:15.483Z,29.07
2018-07-03T10:01:43.544Z,28.75
2018-07-03T10:04:11.580Z,28.40
2018-07-03T10:06:39.639Z,28.15
2018-07-03T10:09:09.356Z,28.14
2018-07-03T10:11:37.469Z,28.60
2018-07-03T10:14:05.512Z,29.13
2018-07-03T10:16:33.566Z,29.54
2018-07-03T10:19:01.617Z,29.84
2018-07-03T10:21:29.705Z,30.16
2018-07-03T10:23:57.744Z,30.46
2018-07-03T10:26:25.848Z,30.83
2018-07-03T10:28:53.931Z,30.97
2018-07-03T10:31:21.977Z,30.94
2018-07-03T10:33:50.055Z,31.08
2018-07-03T10:36:18.149Z,31.34
2018-07-03T10:38:46.189Z,31.54
2018-07-03T10:41:14.276Z,31.21
2018-07-03T10:43:42.335Z,30.91
2018-07-03T10:46:10.699Z,30.63
2018-07-03T10:48:38.751Z,30.73
2018-07-03T10:51:06.796Z,30.60
2018-07-03T10:53:34.857Z,30.58
2018-07-03T10:56:02.923Z,30.79
2018-07-03T10:58:30.988Z,30.95
2018-07-03T11:00:59.035Z,31.03
2018-07-03T11:03:27.100Z,31.28
2018-07-03T11:05:55.141Z,31.66
2018-07-03T11:08:23.201Z,32.12
2018-07-03T11:10:51.288Z,32.41
2018-07-03T11:13:19.356Z,32.52
2018-07-03T11:15:47.404Z,32.79
2018-07-03T11:18:15.488Z,32.89
2018-07-03T11:20:43.536Z,32.91
2018-07-03T11:23:11.612Z,32.89
2018-07-03T11:25:39.672Z,33.09
2018-07-03T11:28:07.729Z,32.91
2018-07-03T11:30:35.772Z,32.95
2018-07-03T11:33:03.840Z,33.29
2018-07-03T11:35:31.899Z,33.43
2018-07-03T11:37:59.959Z,33.33
2018-07-03T11:40:28.002Z,33.27
2018-07-03T11:42:56.091Z,33.30
2018-07-03T11:45:24.137Z,33.44
2018-07-03T11:47:52.199Z,33.46
2018-07-03T11:50:20.257Z,33.49
2018-07-03T11:52:48.344Z,33.60
2018-07-03T11:55:16.395Z,33.62
2018-07-03T11:57:44.453Z,33.43
2018-07-03T12:00:12.512Z,33.36
2018-07-03T12:02:40.580Z,33.63
2018-07-03T12:05:08.636Z,33.80
2018-07-03T12:07:36.733Z,33.85
2018-07-03T12:10:05.021Z,34.04
2018-07-03T12:12:33.075Z,34.15
2018-07-03T12:15:01.130Z,34.26
2018-07-03T12:17:29.164Z,34.10
2018-07-03T12:19:57.279Z,34.06
2018-07-03T12:22:25.303Z,34.02
2018-07-03T12:24:53.359Z,34.06
2018-07-03T12:27:21.398Z,34.17
2018-07-03T12:29:49.472Z,34.30
2018-07-03T12:32:17.533Z,34.27
2018-07-03T12:34:45.592Z,34.12
2018-07-03T12:37:13.636Z,34.00
2018-07-03T12:39:41.691Z,33.98
2018-07-03T12:42:09.754Z,33.84
2018-07-03T12:44:37.836Z,33.82
2018-07-03T12:47:05.900Z,33.72
2018-07-03T12:49:33.947Z,33.67
2018-07-03T12:52:02.008Z,33.55
2018-07-03T12:54:30.068Z,33.39
2018-07-03T12:56:58.129Z,33.32
2018-07-03T12:59:26.184Z,33.33
2018-07-03T13:01:54.256Z,33.52
2018-07-03T13:04:22.355Z,33.65
2018-07-03T13:06:50.432Z,33.57
2018-07-03T13:09:18.491Z,33.33
2018-07-03T13:11:46.583Z,33.34
2018-07-03T13:14:14.663Z,33.41
2018-07-03T13:16:42.767Z,33.51
2018-07-03T13:19:10.820Z,33.54
2018-07-03T13:21:39.108Z,33.69
2018-07-03T13:24:07.188Z,33.84
2018-07-03T13:26:35.249Z,33.84
2018-07-03T13:29:03.336Z,33.84
2018-07-03T13:31:31.415Z,33.71
2018-07-03T13:33:59.436Z,33.90
2018-07-03T13:36:27.551Z,34.01
2018-07-03T13:38:55.611Z,34.03
2018-07-03T13:41:23.682Z,33.79
2018-07-03T13:43:51.752Z,33.72
2018-07-03T13:46:19.808Z,33.76
2018-07-03T13:48:47.892Z,33.73
2018-07-03T13:51:15.958Z,33.59
2018-07-03T13:53:44.019Z,33.67
2018-07-03T13:56:12.108Z,33.69
2018-07-03T13:58:40.156Z,33.91
2018-07-03T14:01:08.238Z,34.01
2018-07-03T14:03:36.272Z,34.05
2018-07-03T14:06:04.340Z,34.19
2018-07-03T14:08:32.439Z,34.00
2018-07-03T14:11:01.064Z,34.11
2018-07-03T14:13:29.104Z,34.14
2018-07-03T14:15:57.160Z,34.16
2018-07-03T14:18:26.248Z,33.97
2018-07-03T14:20:56.173Z,33.81
2018-07-03T14:23:24.237Z,33.92
2018-07-03T14:25:52.321Z,34.00
2018-07-03T14:28:20.376Z,34.11
2018-07-03T14:30:48.459Z,33.91
2018-07-03T14:33:16.523Z,33.90
2018-07-03T14:35:44.654Z,33.96
2018-07-03T14:38:12.709Z,33.93
2018-07-03T14:40:40.835Z,33.78
2018-07-03T14:43:08.879Z,33.67
2018-07-03T14:45:37.049Z,33.51
2018-07-03T14:48:05.757Z,33.31
2018-07-03T14:50:33.844Z,33.15
2018-07-03T14:53:01.928Z,33.00
2018-07-03T14:55:29.984Z,32.90
2018-07-03T14:57:58.040Z,32.78
2018-07-03T15:00:26.120Z,32.66
2018-07-03T15:02:54.181Z,32.60
2018-07-03T15:05:22.260Z,32.56
2018-07-03T15:07:50.308Z,32.53
2018-07-03T15:10:18.396Z,32.47
2018-07-03T15:12:46.432Z,32.28
2018-07-03T15:15:14.556Z,32.31
2018-07-03T15:17:42.601Z,32.34
2018-07-03T15:20:10.680Z,32.39
2018-07-03T15:22:38.727Z,32.39
2018-07-03T15:25:06.817Z,32.22
2018-07-03T15:27:34.876Z,31.97
2018-07-03T15:30:02.959Z,31.81
2018-07-03T15:32:31.021Z,31.74
2018-07-03T15:34:59.104Z,31.71
2018-07-03T15:37:27.148Z,31.56
2018-07-03T15:39:55.279Z,31.37
2018-07-03T15:42:23.336Z,31.24
2018-07-03T15:45:02.807Z,31.10
2018-07-03T15:47:30.920Z,31.00
2018-07-03T15:49:59.037Z,31.03
2018-07-03T15:52:27.104Z,30.80
2018-07-03T15:54:55.141Z,30.56
2018-07-03T15:57:23.212Z,30.41
2018-07-03T15:59:51.256Z,30.28
2018-07-03T16:02:19.365Z,30.12
2018-07-03T16:05:04.704Z,30.04
2018-07-03T16:07:48.112Z,30.05
2018-07-03T16:10:16.160Z,29.98
2018-07-03T16:12:44.233Z,29.79
2018-07-03T16:15:12.344Z,29.62
2018-07-03T16:17:41.266Z,29.50
2018-07-03T16:20:14.803Z,29.41
2018-07-03T16:22:42.852Z,29.27
2018-07-03T16:25:10.946Z,29.18
2018-07-03T16:27:38.945Z,29.10
2018-07-03T16:30:08.120Z,28.92
2018-07-03T16:32:36.412Z,28.76
2018-07-03T16:35:04.712Z,28.72
2018-07-03T16:37:32.772Z,28.73
2018-07-03T16:40:00.824Z,28.65
2018-07-03T16:42:28.955Z,28.63
2018-07-03T16:44:57.023Z,28.55
2018-07-03T16:47:25.186Z,28.46
2018-07-03T16:49:53.235Z,28.31
2018-07-03T16:52:21.304Z,28.17
2018-07-03T16:54:49.343Z,28.05
2018-07-03T16:57:17.429Z,28.00
2018-07-03T16:59:45.471Z,27.96
2018-07-03T17:02:13.555Z,27.83
2018-07-03T17:04:41.664Z,27.78
2018-07-03T17:07:09.734Z,27.67
2018-07-03T17:09:37.782Z,27.63
2018-07-03T17:12:06.053Z,27.67
2018-07-03T17:14:34.110Z,27.71
2018-07-03T17:17:02.173Z,27.66
2018-07-03T17:19:44.898Z,27.68
2018-07-03T17:22:12.836Z,27.68
2018-07-03T17:24:40.901Z,27.68
2018-07-03T17:27:09.024Z,27.72
2018-07-03T17:29:37.075Z,27.71
2018-07-03T17:32:05.148Z,27.68
2018-07-03T17:34:33.222Z,27.65
2018-07-03T17:37:01.282Z,27.63
2018-07-03T17:39:40.783Z,27.63
2018-07-03T17:42:20.400Z,27.52
2018-07-03T17:46:00.800Z,27.46
2018-07-03T17:48:28.908Z,27.41
2018-07-03T17:50:57.024Z,27.35
2018-07-03T17:53:25.152Z,27.28
2018-07-03T17:55:53.309Z,27.24
2018-07-03T17:58:21.392Z,27.23
2018-07-03T18:00:49.456Z,27.20
2018-07-03T18:03:17.528Z,27.13
2018-07-03T18:05:45.594Z,27.10
2018-07-03T18:08:13.681Z,27.02
2018-07-03T18:10:41.720Z,26.88
2018-07-03T18:13:09.802Z,26.77
2018-07-03T18:15:37.845Z,26.66
2018-07-03T18:18:05.912Z,26.57
2018-07-03T18:20:33.952Z,26.51
2018-07-03T18:23:02.001Z,26.32
2018-07-03T18:25:30.088Z,26.19
2018-07-03T18:27:58.142Z,26.03
2018-07-03T18:30:26.191Z,25.97
2018-07-03T18:32:54.251Z,25.94
2018-07-03T18:35:22.339Z,25.96
2018-07-03T18:37:50.396Z,25.93
2018-07-03T18:40:18.568Z,25.80
2018-07-03T18:42:46.552Z,25.78
2018-07-03T18:45:14.600Z,25.77
2018-07-03T18:47:42.648Z,25.68
2018-07-03T18:50:10.724Z,25.43
2018-07-03T18:52:38.796Z,25.19
2018-07-03T18:55:06.872Z,25.03
2018-07-03T18:57:34.928Z,24.80
2018-07-03T19:00:03.006Z,24.62
2018-07-03T19:02:31.073Z,24.51
2018-07-03T19:04:59.160Z,24.39
2018-07-03T19:07:27.212Z,24.30
2018-07-03T19:09:55.297Z,24.22
2018-07-03T19:12:23.351Z,24.10
2018-07-03T19:14:51.412Z,23.96
2018-07-03T19:17:19.464Z,23.79
2018-07-03T19:19:47.525Z,23.67
2018-07-03T19:22:15.603Z,23.58
2018-07-03T19:24:43.684Z,23.49
2018-07-03T19:27:11.767Z,23.38
2018-07-03T19:29:39.900Z,23.29
2018-07-03T19:32:07.952Z,23.18
2018-07-03T19:34:36.012Z,23.06
2018-07-03T19:37:04.068Z,22.98
2018-07-03T19:39:32.135Z,22.90
2018-07-03T19:42:00.210Z,22.83
2018-07-03T19:44:28.263Z,22.78
2018-07-03T19:46:56.343Z,22.70
2018-07-03T19:49:24.401Z,22.63
2018-07-03T19:51:52.461Z,22.54
2018-07-03T19:54:20.528Z,22.47
2018-07-03T19:56:48.569Z,22.39
2018-07-03T19:59:16.625Z,22.33
2018-07-03T20:01:44.684Z,22.27
2018-07-03T20:04:12.780Z,22.20
2018-07-03T20:06:40.828Z,22.15
2018-07-03T20:09:10.731Z,22.09
2018-07-03T20:11:38.849Z,22.01
2018-07-03T20:14:07.360Z,21.93
2018-07-03T20:16:35.668Z,21.85
2018-07-03T20:19:03.803Z,21.79
2018-07-03T20:21:31.832Z,21.72
2018-07-03T20:24:00.000Z,21.63
2018-07-03T20:26:28.052Z,21.60
2018-07-03T20:28:56.096Z,21.55
2018-07-03T20:31:24.178Z,21.48
2018-07-03T20:33:52.230Z,21.40
2018-07-03T20:36:20.296Z,21.36
2018-07-03T20:38:48.345Z,21.30
2018-07-03T20:41:16.392Z,21.24
2018-07-03T20:43:44.437Z,21.16
2018-07-03T20:46:12.510Z,21.08
2018-07-03T20:48:41.376Z,21.03
2018-07-03T20:51:09.424Z,20.97
2018-07-03T20:53:37.488Z,20.91
2018-07-03T20:56:05.560Z,20.86
2018-07-03T20:58:33.612Z,20.79
2018-07-03T21:01:01.681Z,20.73
2018-07-03T21:03:29.743Z,20.69
2018-07-03T21:05:57.807Z,20.65
2018-07-03T21:08:25.851Z,20.58
2018-07-03T21:10:53.924Z,20.51
2018-07-03T21:13:21.971Z,20.45
2018-07-03T21:15:50.028Z,20.39
2018-07-03T21:18:18.074Z,20.31
2018-07-03T21:20:46.127Z,20.24
2018-07-03T21:23:14.171Z,20.19
2018-07-03T21:25:42.218Z,20.12
2018-07-03T21:28:10.267Z,20.06
2018-07-03T21:30:38.318Z,20.00
2018-07-03T21:33:06.437Z,19.97
2018-07-03T21:35:34.545Z,19.91
2018-07-03T21:38:02.608Z,19.86
2018-07-03T21:40:30.672Z,19.80
2018-07-03T21:42:58.717Z,19.74
2018-07-03T21:45:26.788Z,19.68
2018-07-03T21:47:54.843Z,19.62
2018-07-03T21:50:22.908Z,19.55
2018-07-03T21:52:50.960Z,19.46
2018-07-03T21:55:19.007Z,19.38
2018-07-03T21:57:47.092Z,19.32
2018-07-03T22:00:15.141Z,19.22
2018-07-03T22:02:43.193Z,19.15
2018-07-03T22:05:11.468Z,19.09
2018-07-03T22:07:39.523Z,19.04
2018-07-03T22:10:07.566Z,18.99
2018-07-03T22:12:35.636Z,18.95
2018-07-03T22:15:03.693Z,18.90
2018-07-03T22:17:31.753Z,18.83
2018-07-03T22:19:59.799Z,18.79
2018-07-03T22:22:27.852Z,18.73
2018-07-03T22:24:55.895Z,18.70
2018-07-03T22:27:23.953Z,18.67
2018-07-03T22:29:51.989Z,18.60
2018-07-03T22:32:20.048Z,18.56
2018-07-03T22:34:48.131Z,18.51
2018-07-03T22:37:16.173Z,18.47
2018-07-03T22:39:44.233Z,18.36
2018-07-03T22:42:12.287Z,18.29
2018-07-03T22:44:40.333Z,18.22
2018-07-03T22:47:08.388Z,18.17
2018-07-03T22:49:36.425Z,18.12
2018-07-03T22:52:04.489Z,18.05
2018-07-03T22:54:32.552Z,18.00
2018-07-03T22:57:00.615Z,17.93
2018-07-03T22:59:28.656Z,17.87
2018-07-03T23:01:56.713Z,17.81
2018-07-03T23:04:24.761Z,17.74
2018-07-03T23:06:53.076Z,17.70
2018-07-03T23:09:21.166Z,17.65
2018-07-03T23:11:49.216Z,17.60
2018-07-03T23:14:17.269Z,17.55
2018-07-03T23:16:45.343Z,17.48
2018-07-03T23:19:13.387Z,17.42
2018-07-03T23:21:41.453Z,17.37
2018-07-03T23:24:09.488Z,17.31
2018-07-03T23:26:37.535Z,17.25
2018-07-03T23:29:05.588Z,17.19
2018-07-03T23:31:33.664Z,17.13
2018-07-03T23:34:01.721Z,17.07
2018-07-03T23:36:29.812Z,17.04
2018-07-03T23:38:57.852Z,17.01
2018-07-03T23:41:25.916Z,16.98
2018-07-03T23:43:54.120Z,16.93
2018-07-03T23:46:33.804Z,16.89
2018-07-03T23:49:13.330Z,16.82
2018-07-03T23:51:52.876Z,16.78
2018-07-03T23:54:32.385Z,16.73
2018-07-03T23:57:11.908Z,16.66
2018-07-03T23:59:51.557Z,16.60
